Historyczne dane pomiarowe

Dodano dane terminowe – wersja testowa.

Dane z okresu 1951-2019

Wersja bazy: 1.34 [2019-03-16, lista zmian], aktualizacja planowana na 2019-04-15

Dane meteo z obszaru Polski uzyskane na podstawie danych udostępnionych przez Instytut Meteorologii i Gospodarki Wodnej – Państwowy Instytut Badawczy.

 

Wybierz Datę:    

       

TemperaturaWilgotnośćWiatrCiśnienieOpadyŚniegCzas trwania zjawisk
 Stacja t tx tn tng RH VA  wxwx mslp ppp RRR   cm mm wxwxwxwxwxwxwx
2002-10-10 5.7 9.4 1.5- 94.0- 5.3 2.3---- 0.7------------
2002-10-09 7.3 10.5 5.9- 82.8- 6.3 3.0---- 2.0------------
2002-10-08 9.2 11.6 6.9- 88.5- 7.7 9.0---- 1.1------------
2002-10-07 7.9 9.7 5.3- 78.0- 7.0 12.7---- 9.7------------
2002-10-06 10.1 14.4 8.0- 70.8- 7.7 8.7---- 5.7------------
2002-10-05 12.2 14.0 11.3- 90.8- 6.7 8.0---- 9.8------------
2002-10-04 11.6 14.4 8.2- 92.3- 7.0 7.7---- 14.8------------
2002-10-03 9.5 15.9 5.0- 93.3- 4.3 2.0---- 0.0------------
2002-10-02 13.5 17.4 11.6- 93.8- 5.7 2.0---- 0.0------------
2002-10-01 13.4 16.9 11.1- 90.8- 7.3 4.3---- 0.0------------
2002-09-30 14.2 16.5 13.0- 89.5- 7.0 4.0---- 0.0------------
2002-09-29 13.1 15.5 9.4- 90.8- 7.7 5.0---- 0.0------------
2002-09-28 8.5 15.4 2.6- 78.8- 6.0 3.7---- 2.4------------
2002-09-27 11.1 13.5 8.9- 79.5- 5.3 5.3---- 1.0------------
2002-09-26 12.3 14.4 11.0- 89.8- 7.0 5.0---- 7.6------------
2002-09-25 9.4 16.1 2.5- 79.8- 5.0 3.7---- 0.3------------
2002-09-24 8.2 16.1 2.5- 76.3- 4.3 3.0---- 0.0------------
2002-09-23 8.6 12.4 5.5- 64.5- 5.0 6.3---- 0.0------------
2002-09-22 10.1 13.9 7.9- 71.0- 6.0 4.3---- 0.0------------
2002-09-21 12.5 15.4 11.1- 79.0- 6.0 3.0---- 0.0------------
2002-09-20 11.9 17.3 5.5- 81.3- 6.3 5.7---- 11.8------------
2002-09-19 12.5 16.1 8.4- 81.8- 3.7 2.3---- 0.0------------
2002-09-18 14.2 15.3 12.8- 85.3- 5.0 4.3---- 3.2------------
2002-09-17 13.1 17.4 9.4- 88.3- 5.0 3.3---- 5.2------------
2002-09-16 11.9 14.4 10.4- 86.5- 6.7 2.0---- 0.0------------
2002-09-15 12.6 14.4 10.9- 84.3- 5.7 9.3---- 2.4------------
2002-09-14 14.7 17.2 12.4- 88.0- 6.3 6.0---- 9.5------------
2002-09-13 12.9 19.1 7.3- 88.3- 4.0 2.3---- 0.0------------
2002-09-12 11.8 15.7 8.4- 88.5- 3.0 3.3---- 0.0------------
2002-09-11 16.5 19.6 13.0- 75.3- 3.7 5.0---- 0.0------------
2002-09-10 16.9 19.5 13.8- 93.3- 6.0 3.7---- 0.0------------
2002-09-09 16.9 22.3 12.2- 94.0- 7.0 5.0---- 0.0------------
2002-09-08 17.6 24.9 12.4- 70.8- 5.7 4.0---- 0.0------------
2002-09-07 17.1 24.2 11.3- 74.3- 6.0 3.0---- 0.0------------
2002-09-06 17.5 20.6 15.1- 88.8- 5.0 2.3---- 0.0------------
2002-09-05 19.3 24.4 15.8- 74.8- 6.0 3.3---- 6.5------------
2002-09-04 21.1 28.6 14.5- 57.0- 2.7 5.0---- 0.0------------
2002-09-03 17.3 24.9 9.5- 64.5- 2.0 3.0---- 0.0------------
2002-09-02 16.0 21.4 10.4- 76.3- 3.7 2.3---- 0.0------------
2002-09-01 17.8 19.9 16.5- 71.0- 5.3 6.7---- 0.0------------
2002-08-31 19.0 24.7 14.3- 83.3- 3.0 3.0---- 0.0------------
2002-08-30 18.1 23.2 13.0- 86.5- 6.0 2.3---- 0.0------------
2002-08-29 17.1 20.4 13.8- 90.3- 6.3 2.0---- 0.0------------
2002-08-28 18.3 23.9 13.0- 75.3- 6.3 2.0---- 0.0------------
2002-08-27 21.3 27.7 16.0- 60.8- 6.3 3.3---- 0.0------------
2002-08-26 19.3 25.3 13.8- 73.3- 5.3 3.3---- 0.0------------
2002-08-25 19.0 27.4 12.1- 64.5- 3.3 3.0---- 0.0------------
2002-08-24 18.3 25.4 11.6- 82.3- 2.3 3.3---- 0.0------------
2002-08-23 18.4 22.7 14.5- 84.5- 2.7 3.3---- 0.0------------
2002-08-22 18.4 22.6 13.8- 86.0- 3.0 4.0---- 0.0------------
2002-08-21 19.7 27.8 13.2- 63.0- 2.7 3.3---- 0.0------------
2002-08-20 19.8 27.3 12.4- 53.3- 2.0 3.0---- 0.0------------
2002-08-19 21.1 28.2 13.9- 75.8- 2.7 3.3---- 0.0------------
2002-08-18 20.5 25.7 16.1- 85.5- 3.7 4.3---- 0.0------------
2002-08-17 20.3 23.4 17.5- 89.0- 5.3 4.7---- 0.0------------
2002-08-16 20.0 22.4 17.8- 95.5- 8.0 2.0---- 6.4------------
2002-08-15 19.0 21.1 16.5- 93.5- 4.0 2.0---- 0.0------------
2002-08-14 18.2 19.3 17.1- 94.8- 6.3 6.7---- 0.0------------
2002-08-13 17.7 20.4 14.8- 96.3- 7.7 3.0---- 0.3------------
2002-08-12 21.5 26.7 18.2- 75.8- 7.7 2.0---- 11.0------------
364.2 ms

 

Źródłem pochodzenia danych jest Instytut Meteorologii i Gospodarki Wodnej – Państwowy Instytut Badawczy. Dane Instytutu Meteorologii i Gospodarki Wodnej – Państwowego Instytutu Badawczego zostały przetworzone.

Dane źródłowe można odnaleźć na stronie https://dane.imgw.pl